sensor_id;sensor_type;location;lat;lon;timestamp;P1;durP1;ratioP1;P2;durP2;ratioP2
65757;SDS011;52495;52.208;5.158;2023-06-19T00:01:17;8.82;;;7.60;;
65757;SDS011;52495;52.208;5.158;2023-06-19T00:03:44;8.18;;;7.07;;
65757;SDS011;52495;52.208;5.158;2023-06-19T00:06:10;11.07;;;7.60;;
65757;SDS011;52495;52.208;5.158;2023-06-19T00:08:38;8.45;;;7.40;;
65757;SDS011;52495;52.208;5.158;2023-06-19T00:11:07;9.30;;;7.80;;
65757;SDS011;52495;52.208;5.158;2023-06-19T00:13:34;8.13;;;6.82;;
65757;SDS011;52495;52.208;5.158;2023-06-19T00:16:01;8.95;;;7.70;;
65757;SDS011;52495;52.208;5.158;2023-06-19T00:18:28;8.63;;;7.28;;
65757;SDS011;52495;52.208;5.158;2023-06-19T00:20:55;10.10;;;7.35;;
65757;SDS011;52495;52.208;5.158;2023-06-19T00:23:22;9.73;;;7.63;;
65757;SDS011;52495;52.208;5.158;2023-06-19T00:25:49;11.95;;;8.10;;
65757;SDS011;52495;52.208;5.158;2023-06-19T00:28:17;16.52;;;8.35;;
65757;SDS011;52495;52.208;5.158;2023-06-19T00:30:46;12.27;;;8.30;;
65757;SDS011;52495;52.208;5.158;2023-06-19T00:33:13;10.00;;;7.45;;
65757;SDS011;52495;52.208;5.158;2023-06-19T00:35:40;8.70;;;7.10;;
65757;SDS011;52495;52.208;5.158;2023-06-19T00:38:07;11.32;;;7.28;;
65757;SDS011;52495;52.208;5.158;2023-06-19T00:40:34;10.02;;;7.18;;
65757;SDS011;52495;52.208;5.158;2023-06-19T00:43:01;8.23;;;6.85;;
65757;SDS011;52495;52.208;5.158;2023-06-19T00:45:30;9.70;;;7.45;;
65757;SDS011;52495;52.208;5.158;2023-06-19T00:47:57;8.32;;;6.72;;
65757;SDS011;52495;52.208;5.158;2023-06-19T00:50:26;8.85;;;6.88;;
65757;SDS011;52495;52.208;5.158;2023-06-19T00:52:54;8.23;;;6.47;;
65757;SDS011;52495;52.208;5.158;2023-06-19T00:55:22;8.13;;;5.85;;
65757;SDS011;52495;52.208;5.158;2023-06-19T00:57:51;6.80;;;5.82;;
65757;SDS011;52495;52.208;5.158;2023-06-19T01:00:18;8.32;;;5.57;;
65757;SDS011;52495;52.208;5.158;2023-06-19T01:02:47;6.78;;;5.13;;
65757;SDS011;52495;52.208;5.158;2023-06-19T01:05:14;8.10;;;5.55;;
65757;SDS011;52495;52.208;5.158;2023-06-19T01:07:44;8.10;;;5.40;;
65757;SDS011;52495;52.208;5.158;2023-06-19T01:10:21;7.07;;;4.72;;
65757;SDS011;52495;52.208;5.158;2023-06-19T01:15:22;8.70;;;4.93;;
65757;SDS011;52495;52.208;5.158;2023-06-19T01:17:51;7.85;;;4.80;;
65757;SDS011;52495;52.208;5.158;2023-06-19T01:20:21;5.40;;;4.57;;
65757;SDS011;52495;52.208;5.158;2023-06-19T01:22:50;6.05;;;3.38;;
65757;SDS011;52495;52.208;5.158;2023-06-19T01:25:21;9.20;;;3.40;;
65757;SDS011;52495;52.208;5.158;2023-06-19T01:27:49;5.90;;;3.40;;
65757;SDS011;52495;52.208;5.158;2023-06-19T01:30:17;4.88;;;2.78;;
65757;SDS011;52495;52.208;5.158;2023-06-19T01:32:47;9.35;;;2.97;;
65757;SDS011;52495;52.208;5.158;2023-06-19T01:35:22;6.18;;;3.53;;
65757;SDS011;52495;52.208;5.158;2023-06-19T01:37:52;5.47;;;3.00;;
65757;SDS011;52495;52.208;5.158;2023-06-19T01:40:19;7.07;;;3.38;;
65757;SDS011;52495;52.208;5.158;2023-06-19T01:42:50;4.15;;;3.08;;
65757;SDS011;52495;52.208;5.158;2023-06-19T01:45:19;5.57;;;2.97;;
65757;SDS011;52495;52.208;5.158;2023-06-19T01:47:46;9.50;;;3.50;;
65757;SDS011;52495;52.208;5.158;2023-06-19T01:50:13;4.28;;;2.78;;
65757;SDS011;52495;52.208;5.158;2023-06-19T01:52:40;5.30;;;2.85;;
65757;SDS011;52495;52.208;5.158;2023-06-19T01:55:09;6.57;;;3.15;;
65757;SDS011;52495;52.208;5.158;2023-06-19T01:57:36;4.70;;;3.30;;
65757;SDS011;52495;52.208;5.158;2023-06-19T02:00:03;7.20;;;3.08;;
65757;SDS011;52495;52.208;5.158;2023-06-19T02:02:39;7.00;;;3.08;;
65757;SDS011;52495;52.208;5.158;2023-06-19T02:05:06;5.30;;;2.75;;
65757;SDS011;52495;52.208;5.158;2023-06-19T02:07:34;5.70;;;3.22;;
65757;SDS011;52495;52.208;5.158;2023-06-19T02:10:00;5.20;;;3.00;;
65757;SDS011;52495;52.208;5.158;2023-06-19T02:12:29;4.45;;;3.35;;
65757;SDS011;52495;52.208;5.158;2023-06-19T02:14:55;6.03;;;3.38;;
65757;SDS011;52495;52.208;5.158;2023-06-19T02:17:22;5.57;;;3.42;;
65757;SDS011;52495;52.208;5.158;2023-06-19T02:19:49;5.03;;;3.40;;
65757;SDS011;52495;52.208;5.158;2023-06-19T02:22:17;6.00;;;3.42;;
65757;SDS011;52495;52.208;5.158;2023-06-19T02:24:43;8.27;;;4.38;;
65757;SDS011;52495;52.208;5.158;2023-06-19T02:27:12;6.28;;;4.10;;
65757;SDS011;52495;52.208;5.158;2023-06-19T02:29:40;5.30;;;4.15;;
65757;SDS011;52495;52.208;5.158;2023-06-19T02:32:07;5.93;;;3.90;;
65757;SDS011;52495;52.208;5.158;2023-06-19T02:34:34;5.60;;;3.83;;
65757;SDS011;52495;52.208;5.158;2023-06-19T02:37:04;5.80;;;4.60;;
65757;SDS011;52495;52.208;5.158;2023-06-19T02:39:32;5.20;;;4.40;;
65757;SDS011;52495;52.208;5.158;2023-06-19T02:42:00;5.07;;;4.38;;
65757;SDS011;52495;52.208;5.158;2023-06-19T02:44:27;6.28;;;4.57;;
65757;SDS011;52495;52.208;5.158;2023-06-19T02:46:55;5.32;;;4.07;;
65757;SDS011;52495;52.208;5.158;2023-06-19T02:49:22;7.88;;;4.40;;
65757;SDS011;52495;52.208;5.158;2023-06-19T02:51:49;5.07;;;4.40;;
65757;SDS011;52495;52.208;5.158;2023-06-19T02:54:16;5.65;;;4.63;;
65757;SDS011;52495;52.208;5.158;2023-06-19T02:56:42;6.00;;;5.05;;
65757;SDS011;52495;52.208;5.158;2023-06-19T02:59:09;7.18;;;4.55;;
65757;SDS011;52495;52.208;5.158;2023-06-19T03:01:36;7.05;;;4.70;;
65757;SDS011;52495;52.208;5.158;2023-06-19T03:04:04;10.45;;;4.75;;
65757;SDS011;52495;52.208;5.158;2023-06-19T03:06:31;6.53;;;5.10;;
65757;SDS011;52495;52.208;5.158;2023-06-19T03:09:05;5.78;;;5.00;;
65757;SDS011;52495;52.208;5.158;2023-06-19T03:11:37;7.30;;;6.03;;
65757;SDS011;52495;52.208;5.158;2023-06-19T03:14:04;7.05;;;5.60;;
65757;SDS011;52495;52.208;5.158;2023-06-19T03:16:33;9.30;;;7.20;;
65757;SDS011;52495;52.208;5.158;2023-06-19T03:19:00;9.57;;;6.82;;
65757;SDS011;52495;52.208;5.158;2023-06-19T03:21:29;8.07;;;6.78;;
65757;SDS011;52495;52.208;5.158;2023-06-19T03:23:56;9.25;;;6.50;;
65757;SDS011;52495;52.208;5.158;2023-06-19T03:26:23;7.07;;;6.38;;
65757;SDS011;52495;52.208;5.158;2023-06-19T03:28:54;11.02;;;8.43;;
65757;SDS011;52495;52.208;5.158;2023-06-19T03:31:23;10.35;;;8.23;;
65757;SDS011;52495;52.208;5.158;2023-06-19T03:33:50;12.93;;;8.73;;
65757;SDS011;52495;52.208;5.158;2023-06-19T03:36:18;11.50;;;9.95;;
65757;SDS011;52495;52.208;5.158;2023-06-19T03:38:51;11.63;;;8.50;;
65757;SDS011;52495;52.208;5.158;2023-06-19T03:41:23;9.82;;;8.82;;
65757;SDS011;52495;52.208;5.158;2023-06-19T03:43:51;9.07;;;7.00;;
65757;SDS011;52495;52.208;5.158;2023-06-19T03:46:18;10.15;;;8.45;;
65757;SDS011;52495;52.208;5.158;2023-06-19T03:48:45;10.10;;;8.82;;
65757;SDS011;52495;52.208;5.158;2023-06-19T03:51:12;9.70;;;7.38;;
65757;SDS011;52495;52.208;5.158;2023-06-19T03:53:39;8.93;;;8.02;;
65757;SDS011;52495;52.208;5.158;2023-06-19T03:56:08;9.88;;;7.95;;
65757;SDS011;52495;52.208;5.158;2023-06-19T03:58:35;11.85;;;9.10;;
65757;SDS011;52495;52.208;5.158;2023-06-19T04:01:02;12.63;;;10.18;;
65757;SDS011;52495;52.208;5.158;2023-06-19T04:03:31;12.52;;;9.52;;
65757;SDS011;52495;52.208;5.158;2023-06-19T04:05:58;11.77;;;10.25;;
65757;SDS011;52495;52.208;5.158;2023-06-19T04:08:24;12.75;;;10.55;;
65757;SDS011;52495;52.208;5.158;2023-06-19T04:10:51;14.00;;;11.13;;
65757;SDS011;52495;52.208;5.158;2023-06-19T04:13:19;12.13;;;10.50;;
65757;SDS011;52495;52.208;5.158;2023-06-19T04:15:46;14.32;;;11.30;;
65757;SDS011;52495;52.208;5.158;2023-06-19T04:18:13;15.55;;;11.65;;
65757;SDS011;52495;52.208;5.158;2023-06-19T04:20:40;15.48;;;12.55;;
65757;SDS011;52495;52.208;5.158;2023-06-19T04:23:07;14.55;;;12.35;;
65757;SDS011;52495;52.208;5.158;2023-06-19T04:25:34;16.45;;;12.55;;
65757;SDS011;52495;52.208;5.158;2023-06-19T04:28:01;15.23;;;11.57;;
65757;SDS011;52495;52.208;5.158;2023-06-19T04:30:30;16.50;;;11.60;;
65757;SDS011;52495;52.208;5.158;2023-06-19T04:32:57;11.68;;;10.43;;
65757;SDS011;52495;52.208;5.158;2023-06-19T04:35:24;12.18;;;9.48;;
65757;SDS011;52495;52.208;5.158;2023-06-19T04:37:51;11.32;;;9.13;;
65757;SDS011;52495;52.208;5.158;2023-06-19T04:40:19;11.32;;;9.48;;
65757;SDS011;52495;52.208;5.158;2023-06-19T04:42:46;9.00;;;7.78;;
65757;SDS011;52495;52.208;5.158;2023-06-19T04:45:12;10.50;;;8.15;;
65757;SDS011;52495;52.208;5.158;2023-06-19T04:47:40;9.10;;;8.18;;
65757;SDS011;52495;52.208;5.158;2023-06-19T04:50:09;11.05;;;8.70;;
65757;SDS011;52495;52.208;5.158;2023-06-19T04:52:36;11.52;;;9.10;;
65757;SDS011;52495;52.208;5.158;2023-06-19T04:55:04;11.60;;;8.73;;
65757;SDS011;52495;52.208;5.158;2023-06-19T04:57:34;11.65;;;8.07;;
65757;SDS011;52495;52.208;5.158;2023-06-19T05:00:02;10.00;;;7.88;;
65757;SDS011;52495;52.208;5.158;2023-06-19T05:02:30;12.00;;;7.57;;
65757;SDS011;52495;52.208;5.158;2023-06-19T05:04:58;8.75;;;6.85;;
65757;SDS011;52495;52.208;5.158;2023-06-19T05:07:28;9.35;;;6.13;;
65757;SDS011;52495;52.208;5.158;2023-06-19T05:09:55;7.45;;;5.80;;
65757;SDS011;52495;52.208;5.158;2023-06-19T05:12:22;8.77;;;6.35;;
65757;SDS011;52495;52.208;5.158;2023-06-19T05:14:48;7.63;;;5.97;;
65757;SDS011;52495;52.208;5.158;2023-06-19T05:17:15;10.13;;;7.28;;
65757;SDS011;52495;52.208;5.158;2023-06-19T05:19:42;11.73;;;8.38;;
65757;SDS011;52495;52.208;5.158;2023-06-19T05:22:10;10.95;;;8.70;;
65757;SDS011;52495;52.208;5.158;2023-06-19T05:24:37;12.68;;;10.43;;
65757;SDS011;52495;52.208;5.158;2023-06-19T05:27:04;10.65;;;9.57;;
65757;SDS011;52495;52.208;5.158;2023-06-19T05:29:31;12.50;;;10.10;;
65757;SDS011;52495;52.208;5.158;2023-06-19T05:31:58;11.27;;;9.90;;
65757;SDS011;52495;52.208;5.158;2023-06-19T05:34:25;11.13;;;9.35;;
65757;SDS011;52495;52.208;5.158;2023-06-19T05:36:51;11.43;;;8.85;;
65757;SDS011;52495;52.208;5.158;2023-06-19T05:39:19;10.02;;;8.25;;
65757;SDS011;52495;52.208;5.158;2023-06-19T05:41:46;9.38;;;7.93;;
65757;SDS011;52495;52.208;5.158;2023-06-19T05:44:13;8.65;;;7.43;;
65757;SDS011;52495;52.208;5.158;2023-06-19T05:46:41;8.55;;;7.45;;
65757;SDS011;52495;52.208;5.158;2023-06-19T05:49:08;8.88;;;7.20;;
65757;SDS011;52495;52.208;5.158;2023-06-19T05:51:35;9.02;;;7.78;;
65757;SDS011;52495;52.208;5.158;2023-06-19T05:54:02;8.75;;;7.70;;
65757;SDS011;52495;52.208;5.158;2023-06-19T05:56:31;9.18;;;7.82;;
65757;SDS011;52495;52.208;5.158;2023-06-19T05:58:58;9.30;;;7.35;;
65757;SDS011;52495;52.208;5.158;2023-06-19T06:01:26;11.25;;;7.28;;
65757;SDS011;52495;52.208;5.158;2023-06-19T06:03:53;10.52;;;7.93;;
65757;SDS011;52495;52.208;5.158;2023-06-19T06:06:20;8.70;;;7.30;;
65757;SDS011;52495;52.208;5.158;2023-06-19T06:08:47;9.23;;;7.03;;
65757;SDS011;52495;52.208;5.158;2023-06-19T06:11:14;9.93;;;6.85;;
65757;SDS011;52495;52.208;5.158;2023-06-19T06:13:42;8.65;;;6.47;;
65757;SDS011;52495;52.208;5.158;2023-06-19T06:16:09;8.55;;;7.38;;
65757;SDS011;52495;52.208;5.158;2023-06-19T06:18:36;12.35;;;7.78;;
65757;SDS011;52495;52.208;5.158;2023-06-19T06:21:03;10.57;;;6.93;;
65757;SDS011;52495;52.208;5.158;2023-06-19T06:23:30;13.13;;;7.35;;
65757;SDS011;52495;52.208;5.158;2023-06-19T06:25:57;11.15;;;7.97;;
65757;SDS011;52495;52.208;5.158;2023-06-19T06:28:27;10.32;;;7.25;;
65757;SDS011;52495;52.208;5.158;2023-06-19T06:30:55;9.52;;;7.60;;
65757;SDS011;52495;52.208;5.158;2023-06-19T06:33:22;9.43;;;7.53;;
65757;SDS011;52495;52.208;5.158;2023-06-19T06:35:53;9.95;;;7.22;;
65757;SDS011;52495;52.208;5.158;2023-06-19T06:38:21;10.48;;;8.32;;
65757;SDS011;52495;52.208;5.158;2023-06-19T06:40:47;13.02;;;9.27;;
65757;SDS011;52495;52.208;5.158;2023-06-19T06:43:14;12.30;;;8.75;;
65757;SDS011;52495;52.208;5.158;2023-06-19T06:45:41;11.40;;;9.00;;
65757;SDS011;52495;52.208;5.158;2023-06-19T06:48:09;12.02;;;8.13;;
65757;SDS011;52495;52.208;5.158;2023-06-19T06:50:36;10.95;;;7.95;;
65757;SDS011;52495;52.208;5.158;2023-06-19T06:53:03;10.70;;;7.90;;
65757;SDS011;52495;52.208;5.158;2023-06-19T06:55:30;14.75;;;9.68;;
65757;SDS011;52495;52.208;5.158;2023-06-19T06:57:56;12.23;;;9.10;;
65757;SDS011;52495;52.208;5.158;2023-06-19T07:00:23;10.45;;;8.43;;
65757;SDS011;52495;52.208;5.158;2023-06-19T07:02:50;13.60;;;9.20;;
65757;SDS011;52495;52.208;5.158;2023-06-19T07:05:18;12.85;;;9.35;;
65757;SDS011;52495;52.208;5.158;2023-06-19T07:07:45;12.60;;;9.65;;
65757;SDS011;52495;52.208;5.158;2023-06-19T07:10:12;15.13;;;10.32;;
65757;SDS011;52495;52.208;5.158;2023-06-19T07:12:46;12.77;;;10.52;;
65757;SDS011;52495;52.208;5.158;2023-06-19T07:15:13;13.75;;;10.02;;
65757;SDS011;52495;52.208;5.158;2023-06-19T07:17:40;12.50;;;10.13;;
65757;SDS011;52495;52.208;5.158;2023-06-19T07:20:07;12.65;;;10.07;;
65757;SDS011;52495;52.208;5.158;2023-06-19T07:22:36;13.90;;;9.48;;
65757;SDS011;52495;52.208;5.158;2023-06-19T07:25:04;11.95;;;9.25;;
65757;SDS011;52495;52.208;5.158;2023-06-19T07:27:32;12.07;;;10.15;;
65757;SDS011;52495;52.208;5.158;2023-06-19T07:29:58;17.35;;;10.98;;
65757;SDS011;52495;52.208;5.158;2023-06-19T07:32:25;13.68;;;9.68;;
65757;SDS011;52495;52.208;5.158;2023-06-19T07:34:52;12.32;;;8.93;;
65757;SDS011;52495;52.208;5.158;2023-06-19T07:37:19;15.30;;;9.95;;
65757;SDS011;52495;52.208;5.158;2023-06-19T07:39:48;15.10;;;9.63;;
65757;SDS011;52495;52.208;5.158;2023-06-19T07:42:16;13.93;;;9.30;;
65757;SDS011;52495;52.208;5.158;2023-06-19T07:44:44;12.88;;;8.00;;
65757;SDS011;52495;52.208;5.158;2023-06-19T07:47:12;12.48;;;8.98;;
65757;SDS011;52495;52.208;5.158;2023-06-19T07:49:39;11.75;;;9.10;;
65757;SDS011;52495;52.208;5.158;2023-06-19T07:52:07;11.40;;;8.40;;
65757;SDS011;52495;52.208;5.158;2023-06-19T07:54:35;10.65;;;7.65;;
65757;SDS011;52495;52.208;5.158;2023-06-19T07:57:04;10.52;;;9.00;;
65757;SDS011;52495;52.208;5.158;2023-06-19T07:59:31;11.13;;;8.82;;
65757;SDS011;52495;52.208;5.158;2023-06-19T08:01:57;12.40;;;9.07;;
65757;SDS011;52495;52.208;5.158;2023-06-19T08:04:24;13.85;;;9.45;;
65757;SDS011;52495;52.208;5.158;2023-06-19T08:06:51;11.75;;;8.75;;
65757;SDS011;52495;52.208;5.158;2023-06-19T08:09:18;14.02;;;8.27;;
65757;SDS011;52495;52.208;5.158;2023-06-19T08:11:44;10.02;;;7.70;;
65757;SDS011;52495;52.208;5.158;2023-06-19T08:14:13;15.30;;;9.85;;
65757;SDS011;52495;52.208;5.158;2023-06-19T08:16:39;15.82;;;9.57;;
65757;SDS011;52495;52.208;5.158;2023-06-19T08:19:06;13.30;;;10.65;;
65757;SDS011;52495;52.208;5.158;2023-06-19T08:21:33;15.57;;;9.88;;
65757;SDS011;52495;52.208;5.158;2023-06-19T08:24:00;16.38;;;9.98;;
65757;SDS011;52495;52.208;5.158;2023-06-19T08:26:27;21.00;;;11.48;;
65757;SDS011;52495;52.208;5.158;2023-06-19T08:28:54;11.93;;;9.40;;
65757;SDS011;52495;52.208;5.158;2023-06-19T08:31:22;13.25;;;9.50;;
65757;SDS011;52495;52.208;5.158;2023-06-19T08:33:52;14.45;;;10.82;;
65757;SDS011;52495;52.208;5.158;2023-06-19T08:36:19;13.20;;;9.73;;
65757;SDS011;52495;52.208;5.158;2023-06-19T08:38:46;12.77;;;9.85;;
65757;SDS011;52495;52.208;5.158;2023-06-19T08:41:14;15.50;;;9.80;;
65757;SDS011;52495;52.208;5.158;2023-06-19T08:43:43;13.40;;;8.50;;
65757;SDS011;52495;52.208;5.158;2023-06-19T08:46:11;11.70;;;9.00;;
65757;SDS011;52495;52.208;5.158;2023-06-19T08:48:42;12.70;;;9.23;;
65757;SDS011;52495;52.208;5.158;2023-06-19T08:51:09;14.35;;;9.07;;
65757;SDS011;52495;52.208;5.158;2023-06-19T08:53:37;13.93;;;9.43;;
65757;SDS011;52495;52.208;5.158;2023-06-19T08:56:11;16.17;;;10.80;;
65757;SDS011;52495;52.208;5.158;2023-06-19T08:58:38;13.82;;;10.80;;
65757;SDS011;52495;52.208;5.158;2023-06-19T09:01:05;14.10;;;11.63;;
65757;SDS011;52495;52.208;5.158;2023-06-19T09:03:32;16.88;;;10.77;;
65757;SDS011;52495;52.208;5.158;2023-06-19T09:06:03;13.18;;;11.38;;
65757;SDS011;52495;52.208;5.158;2023-06-19T09:08:32;17.77;;;13.77;;
65757;SDS011;52495;52.208;5.158;2023-06-19T09:11:00;17.17;;;13.95;;
65757;SDS011;52495;52.208;5.158;2023-06-19T09:13:29;19.33;;;13.48;;
65757;SDS011;52495;52.208;5.158;2023-06-19T09:15:58;15.88;;;12.05;;
65757;SDS011;52495;52.208;5.158;2023-06-19T09:18:27;18.42;;;13.65;;
65757;SDS011;52495;52.208;5.158;2023-06-19T09:20:56;19.30;;;15.45;;
65757;SDS011;52495;52.208;5.158;2023-06-19T09:23:24;19.52;;;14.88;;
65757;SDS011;52495;52.208;5.158;2023-06-19T09:25:56;17.65;;;15.48;;
65757;SDS011;52495;52.208;5.158;2023-06-19T09:28:24;24.20;;;16.70;;
65757;SDS011;52495;52.208;5.158;2023-06-19T09:30:55;19.55;;;15.88;;
65757;SDS011;52495;52.208;5.158;2023-06-19T09:33:24;21.13;;;16.77;;
65757;SDS011;52495;52.208;5.158;2023-06-19T09:35:52;20.55;;;17.20;;
65757;SDS011;52495;52.208;5.158;2023-06-19T09:38:21;18.45;;;16.30;;
65757;SDS011;52495;52.208;5.158;2023-06-19T09:40:56;20.10;;;15.60;;
65757;SDS011;52495;52.208;5.158;2023-06-19T09:43:29;20.50;;;17.67;;
65757;SDS011;52495;52.208;5.158;2023-06-19T09:46:00;20.98;;;16.70;;
65757;SDS011;52495;52.208;5.158;2023-06-19T09:48:29;20.00;;;16.90;;
65757;SDS011;52495;52.208;5.158;2023-06-19T09:51:00;17.92;;;15.75;;
65757;SDS011;52495;52.208;5.158;2023-06-19T09:53:28;20.00;;;16.85;;
65757;SDS011;52495;52.208;5.158;2023-06-19T09:55:58;19.50;;;17.30;;
65757;SDS011;52495;52.208;5.158;2023-06-19T09:58:24;25.80;;;17.42;;
65757;SDS011;52495;52.208;5.158;2023-06-19T10:00:53;23.33;;;18.15;;
65757;SDS011;52495;52.208;5.158;2023-06-19T10:03:21;20.55;;;16.65;;
65757;SDS011;52495;52.208;5.158;2023-06-19T10:05:57;21.95;;;16.75;;
65757;SDS011;52495;52.208;5.158;2023-06-19T10:08:29;20.23;;;17.15;;
65757;SDS011;52495;52.208;5.158;2023-06-19T10:10:58;20.50;;;17.58;;
65757;SDS011;52495;52.208;5.158;2023-06-19T10:13:31;19.50;;;17.40;;
65757;SDS011;52495;52.208;5.158;2023-06-19T10:15:58;20.80;;;16.65;;
65757;SDS011;52495;52.208;5.158;2023-06-19T10:18:26;23.63;;;15.52;;
65757;SDS011;52495;52.208;5.158;2023-06-19T10:20:56;22.17;;;15.93;;
65757;SDS011;52495;52.208;5.158;2023-06-19T10:23:24;20.42;;;16.98;;
65757;SDS011;52495;52.208;5.158;2023-06-19T10:25:58;18.67;;;16.27;;
65757;SDS011;52495;52.208;5.158;2023-06-19T10:30:54;21.88;;;16.77;;
65757;SDS011;52495;52.208;5.158;2023-06-19T10:33:22;19.85;;;17.75;;
65757;SDS011;52495;52.208;5.158;2023-06-19T10:35:50;22.73;;;18.63;;
65757;SDS011;52495;52.208;5.158;2023-06-19T10:38:17;20.25;;;17.83;;
65757;SDS011;52495;52.208;5.158;2023-06-19T10:40:44;24.27;;;18.67;;
65757;SDS011;52495;52.208;5.158;2023-06-19T10:43:18;17.83;;;15.60;;
65757;SDS011;52495;52.208;5.158;2023-06-19T10:45:48;19.17;;;16.20;;
65757;SDS011;52495;52.208;5.158;2023-06-19T10:48:18;19.75;;;17.40;;
65757;SDS011;52495;52.208;5.158;2023-06-19T10:50:46;19.55;;;15.85;;
65757;SDS011;52495;52.208;5.158;2023-06-19T10:53:22;21.65;;;18.00;;
65757;SDS011;52495;52.208;5.158;2023-06-19T10:55:53;20.15;;;16.67;;
65757;SDS011;52495;52.208;5.158;2023-06-19T10:58:22;24.25;;;17.15;;
65757;SDS011;52495;52.208;5.158;2023-06-19T11:00:49;18.95;;;16.65;;
65757;SDS011;52495;52.208;5.158;2023-06-19T11:03:16;20.17;;;15.98;;
65757;SDS011;52495;52.208;5.158;2023-06-19T11:05:43;23.27;;;18.70;;
65757;SDS011;52495;52.208;5.158;2023-06-19T11:08:16;20.73;;;17.85;;
65757;SDS011;52495;52.208;5.158;2023-06-19T11:10:45;22.80;;;18.33;;
65757;SDS011;52495;52.208;5.158;2023-06-19T11:13:13;19.25;;;15.70;;
65757;SDS011;52495;52.208;5.158;2023-06-19T11:15:43;20.60;;;17.30;;
65757;SDS011;52495;52.208;5.158;2023-06-19T11:18:10;20.13;;;17.10;;
65757;SDS011;52495;52.208;5.158;2023-06-19T11:20:43;18.50;;;16.08;;
65757;SDS011;52495;52.208;5.158;2023-06-19T11:23:11;15.50;;;13.73;;
65757;SDS011;52495;52.208;5.158;2023-06-19T11:25:39;20.35;;;16.58;;
65757;SDS011;52495;52.208;5.158;2023-06-19T11:28:10;21.50;;;15.50;;
65757;SDS011;52495;52.208;5.158;2023-06-19T11:30:38;16.58;;;14.88;;
65757;SDS011;52495;52.208;5.158;2023-06-19T11:33:16;17.77;;;13.70;;
65757;SDS011;52495;52.208;5.158;2023-06-19T11:35:47;14.90;;;12.27;;
65757;SDS011;52495;52.208;5.158;2023-06-19T11:38:16;19.25;;;13.32;;
65757;SDS011;52495;52.208;5.158;2023-06-19T11:40:44;17.45;;;12.80;;
65757;SDS011;52495;52.208;5.158;2023-06-19T11:43:11;18.13;;;15.07;;
65757;SDS011;52495;52.208;5.158;2023-06-19T11:45:45;16.30;;;13.82;;
65757;SDS011;52495;52.208;5.158;2023-06-19T11:48:14;13.82;;;10.82;;
65757;SDS011;52495;52.208;5.158;2023-06-19T11:50:47;13.85;;;11.82;;
65757;SDS011;52495;52.208;5.158;2023-06-19T11:53:14;14.35;;;10.57;;
65757;SDS011;52495;52.208;5.158;2023-06-19T11:55:41;14.68;;;11.40;;
65757;SDS011;52495;52.208;5.158;2023-06-19T11:58:09;15.52;;;13.07;;
65757;SDS011;52495;52.208;5.158;2023-06-19T12:00:36;16.15;;;12.20;;
65757;SDS011;52495;52.208;5.158;2023-06-19T12:03:03;16.27;;;12.85;;
65757;SDS011;52495;52.208;5.158;2023-06-19T12:05:31;15.63;;;13.80;;
65757;SDS011;52495;52.208;5.158;2023-06-19T12:07:58;13.30;;;11.70;;
65757;SDS011;52495;52.208;5.158;2023-06-19T12:10:27;12.40;;;11.07;;
65757;SDS011;52495;52.208;5.158;2023-06-19T12:12:54;15.57;;;13.30;;
65757;SDS011;52495;52.208;5.158;2023-06-19T12:15:21;21.15;;;14.07;;
65757;SDS011;52495;52.208;5.158;2023-06-19T12:17:47;16.50;;;13.00;;
65757;SDS011;52495;52.208;5.158;2023-06-19T12:20:14;18.55;;;13.75;;
65757;SDS011;52495;52.208;5.158;2023-06-19T12:22:43;12.40;;;11.05;;
65757;SDS011;52495;52.208;5.158;2023-06-19T12:25:10;12.27;;;11.00;;
65757;SDS011;52495;52.208;5.158;2023-06-19T12:27:37;10.90;;;9.80;;
65757;SDS011;52495;52.208;5.158;2023-06-19T12:30:04;12.95;;;9.05;;
65757;SDS011;52495;52.208;5.158;2023-06-19T12:32:33;10.45;;;9.20;;
65757;SDS011;52495;52.208;5.158;2023-06-19T12:35:00;14.10;;;10.13;;
65757;SDS011;52495;52.208;5.158;2023-06-19T12:37:28;14.15;;;10.82;;
65757;SDS011;52495;52.208;5.158;2023-06-19T12:39:56;10.15;;;8.77;;
65757;SDS011;52495;52.208;5.158;2023-06-19T12:42:23;10.55;;;7.93;;
65757;SDS011;52495;52.208;5.158;2023-06-19T12:44:49;10.48;;;7.22;;
65757;SDS011;52495;52.208;5.158;2023-06-19T12:47:16;12.90;;;8.00;;
65757;SDS011;52495;52.208;5.158;2023-06-19T12:49:43;9.13;;;7.68;;
65757;SDS011;52495;52.208;5.158;2023-06-19T12:52:10;11.32;;;8.30;;
65757;SDS011;52495;52.208;5.158;2023-06-19T12:54:37;8.48;;;6.80;;
65757;SDS011;52495;52.208;5.158;2023-06-19T12:57:08;10.95;;;7.25;;
65757;SDS011;52495;52.208;5.158;2023-06-19T12:59:35;8.88;;;6.85;;
65757;SDS011;52495;52.208;5.158;2023-06-19T13:02:02;10.50;;;8.27;;
65757;SDS011;52495;52.208;5.158;2023-06-19T13:04:29;9.80;;;7.95;;
65757;SDS011;52495;52.208;5.158;2023-06-19T13:06:56;12.60;;;10.13;;
65757;SDS011;52495;52.208;5.158;2023-06-19T13:09:23;12.85;;;9.55;;
65757;SDS011;52495;52.208;5.158;2023-06-19T13:11:50;12.30;;;9.80;;
65757;SDS011;52495;52.208;5.158;2023-06-19T13:14:18;14.75;;;11.85;;
65757;SDS011;52495;52.208;5.158;2023-06-19T13:16:45;11.02;;;9.82;;
65757;SDS011;52495;52.208;5.158;2023-06-19T13:19:12;15.68;;;11.77;;
65757;SDS011;52495;52.208;5.158;2023-06-19T13:21:40;18.08;;;13.23;;
65757;SDS011;52495;52.208;5.158;2023-06-19T13:24:07;14.27;;;12.38;;
65757;SDS011;52495;52.208;5.158;2023-06-19T13:26:33;12.68;;;10.23;;
65757;SDS011;52495;52.208;5.158;2023-06-19T13:29:00;10.30;;;9.10;;
65757;SDS011;52495;52.208;5.158;2023-06-19T13:31:29;10.63;;;9.50;;
65757;SDS011;52495;52.208;5.158;2023-06-19T13:33:55;13.23;;;10.70;;
65757;SDS011;52495;52.208;5.158;2023-06-19T13:36:23;12.30;;;9.10;;
65757;SDS011;52495;52.208;5.158;2023-06-19T13:38:52;10.88;;;8.50;;
65757;SDS011;52495;52.208;5.158;2023-06-19T13:41:19;13.82;;;8.20;;
65757;SDS011;52495;52.208;5.158;2023-06-19T13:43:45;11.30;;;7.72;;
65757;SDS011;52495;52.208;5.158;2023-06-19T13:46:12;8.73;;;6.47;;
65757;SDS011;52495;52.208;5.158;2023-06-19T13:48:40;9.27;;;6.47;;
65757;SDS011;52495;52.208;5.158;2023-06-19T13:51:07;9.35;;;6.57;;
65757;SDS011;52495;52.208;5.158;2023-06-19T13:53:34;9.18;;;6.60;;
65757;SDS011;52495;52.208;5.158;2023-06-19T13:56:01;8.52;;;6.88;;
65757;SDS011;52495;52.208;5.158;2023-06-19T13:58:28;10.13;;;7.10;;
65757;SDS011;52495;52.208;5.158;2023-06-19T14:00:55;10.80;;;7.25;;
65757;SDS011;52495;52.208;5.158;2023-06-19T14:03:22;8.07;;;7.18;;
65757;SDS011;52495;52.208;5.158;2023-06-19T14:05:50;8.55;;;6.82;;
65757;SDS011;52495;52.208;5.158;2023-06-19T14:08:17;8.95;;;7.50;;
65757;SDS011;52495;52.208;5.158;2023-06-19T14:10:44;13.73;;;8.23;;
65757;SDS011;52495;52.208;5.158;2023-06-19T14:13:11;11.10;;;7.60;;
65757;SDS011;52495;52.208;5.158;2023-06-19T14:15:38;11.65;;;8.25;;
65757;SDS011;52495;52.208;5.158;2023-06-19T14:18:04;11.60;;;9.48;;
65757;SDS011;52495;52.208;5.158;2023-06-19T14:20:31;11.73;;;9.55;;
65757;SDS011;52495;52.208;5.158;2023-06-19T14:22:59;11.10;;;9.27;;
65757;SDS011;52495;52.208;5.158;2023-06-19T14:25:26;12.57;;;9.57;;
65757;SDS011;52495;52.208;5.158;2023-06-19T14:27:53;12.43;;;10.07;;
65757;SDS011;52495;52.208;5.158;2023-06-19T14:30:20;11.30;;;7.85;;
65757;SDS011;52495;52.208;5.158;2023-06-19T14:32:47;12.38;;;10.40;;
65757;SDS011;52495;52.208;5.158;2023-06-19T14:35:14;13.70;;;10.68;;
65757;SDS011;52495;52.208;5.158;2023-06-19T14:37:40;13.18;;;11.45;;
65757;SDS011;52495;52.208;5.158;2023-06-19T14:40:09;13.05;;;10.82;;
65757;SDS011;52495;52.208;5.158;2023-06-19T14:42:36;14.57;;;11.25;;